»·PEaware :: N582WD KVNY-KSBA

N582WD :: KVNY-KSBA

FLIGHT INFORMATION

Flight Status: Arrived
Operator: Privately registered:
United States
More flights under this callsign
Pilot: Erik B. (9150)
Aircraft: ECLIPSE 500
(EA50)
More flights by this aircraft type
Origin: KVNY Van Nuys
United States
Destination: KSBA Santa Barbara Mun
United States
More flights between these airports :: More routes between these airports
Route: +CANOG2 FIM V186 DEANO V27 KWANG
File this flight plan on PilotEdge
Remarks:
Altitude:
(Current/Filed)
6,000ft
Speed:
(Current/Filed)
200kts
Departed: 05-Sep-18 08:42 PM
Arrived: 05-Sep-18 09:22 PM
Distance/Time
Traveled:
68nm/0:40
Distance/Time
To Go:
Arrived

Flight Plot

Page will automatically refresh every two minutes.


Map Options




Map Legend


Flown Route
Filed Route
Departure Airport
Arrival Airport
Navaid (VOR, NDB)
Fix

Horizontal Profiles

Position Reports

Time Latitude Longitude Heading Altitude Ground
Speed
05-Sep-18 20:24 34.204316 -118.491536 359 805ft 0kts
05-Sep-18 20:25 34.204316 -118.491536 359 805ft 0kts
05-Sep-18 20:26 34.204316 -118.491536 359 805ft 0kts
05-Sep-18 20:27 34.204316 -118.491536 359 805ft 0kts
05-Sep-18 20:28 34.204316 -118.491536 359 805ft 0kts
05-Sep-18 20:29 34.204316 -118.491536 359 805ft 0kts
05-Sep-18 20:30 34.204316 -118.491536 359 805ft 0kts
05-Sep-18 20:31 34.204316 -118.491536 359 805ft 0kts
05-Sep-18 20:32 34.204316 -118.491536 0 805ft 0kts
05-Sep-18 20:33 34.204316 -118.491536 0 805ft 0kts
05-Sep-18 20:34 34.204316 -118.491536 0 805ft 0kts
05-Sep-18 20:35 34.204328 -118.491536 0 805ft 0kts
05-Sep-18 20:36 34.204736 -118.491081 3 805ft 5kts
05-Sep-18 20:36 34.205737 -118.491156 355 805ft 13kts
05-Sep-18 20:38 34.211304 -118.491681 354 805ft 16kts
05-Sep-18 20:39 34.215358 -118.492134 351 805ft 13kts
05-Sep-18 20:40 34.217797 -118.492300 356 805ft 0kts
05-Sep-18 20:40 34.217797 -118.492300 356 805ft 0kts
05-Sep-18 20:41 34.217985 -118.492317 356 805ft 6kts
05-Sep-18 20:43 34.218225 -118.491170 175 805ft 0kts
05-Sep-18 20:43 34.208536 -118.490309 175 882ft 107kts
05-Sep-18 20:44 34.179428 -118.510297 225 1712ft 161kts
05-Sep-18 20:45 34.153386 -118.544821 225 3383ft 156kts
05-Sep-18 20:46 34.136554 -118.590683 304 4910ft 184kts
05-Sep-18 20:47 34.176979 -118.592016 81 6002ft 197kts
05-Sep-18 20:48 34.183939 -118.528639 85 5997ft 191kts
05-Sep-18 20:49 34.218855 -118.508067 303 6003ft 208kts
05-Sep-18 20:50 34.230294 -118.576623 285 5997ft 222kts
05-Sep-18 20:51 34.252890 -118.647718 294 5998ft 228kts
05-Sep-18 20:52 34.280187 -118.714053 296 6004ft 227kts
05-Sep-18 20:53 34.309491 -118.779675 300 6005ft 205kts
05-Sep-18 20:54 34.337882 -118.840773 300 6010ft 211kts
05-Sep-18 20:55 34.344527 -118.908856 265 6009ft 216kts
05-Sep-18 20:56 34.338665 -118.981021 268 6024ft 216kts
05-Sep-18 20:57 34.334330 -119.053526 269 6027ft 216kts
05-Sep-18 20:58 34.330595 -119.126056 270 6025ft 215kts
05-Sep-18 20:59 34.327074 -119.198612 270 6022ft 216kts
05-Sep-18 21:00 34.323625 -119.270925 270 6019ft 216kts
05-Sep-18 21:01 34.320170 -119.343720 270 5901ft 221kts
05-Sep-18 21:02 34.316909 -119.411284 269 4891ft 187kts
05-Sep-18 21:03 34.312274 -119.472918 267 4018ft 178kts
05-Sep-18 21:04 34.315231 -119.531969 295 3997ft 180kts
05-Sep-18 21:05 34.321724 -119.591226 272 3987ft 182kts
05-Sep-18 21:06 34.321352 -119.652476 271 3987ft 182kts
05-Sep-18 21:07 34.321455 -119.713989 271 4001ft 183kts
05-Sep-18 21:08 34.321885 -119.775535 271 4000ft 182kts
05-Sep-18 21:09 34.322352 -119.837145 272 4000ft 183kts
05-Sep-18 21:10 34.322832 -119.898789 272 4000ft 182kts
05-Sep-18 21:11 34.323327 -119.960441 272 4000ft 183kts
05-Sep-18 21:12 34.323930 -120.024455 272 3999ft 191kts
05-Sep-18 21:13 34.324732 -120.086276 272 4005ft 183kts
05-Sep-18 21:14 34.329735 -120.147866 293 4013ft 189kts
05-Sep-18 21:15 34.375514 -120.144084 32 3289ft 187kts
05-Sep-18 21:16 34.411099 -120.109586 62 3014ft 165kts
05-Sep-18 21:17 34.423188 -120.055306 88 3002ft 157kts
05-Sep-18 21:18 34.424336 -120.001304 88 2413ft 159kts
05-Sep-18 21:19 34.425423 -119.951817 88 1633ft 127kts
05-Sep-18 21:20 34.426261 -119.912883 88 1003ft 114kts
05-Sep-18 21:21 34.427040 -119.876375 88 412ft 108kts
05-Sep-18 21:22 34.427727 -119.842933 88 13ft 65kts
05-Sep-18 21:23 34.428531 -119.838915 346 13ft 3kts
05-Sep-18 21:24 34.430107 -119.839403 345 13ft 10kts
05-Sep-18 21:25 34.431696 -119.836486 68 13ft 12kts
05-Sep-18 21:26 34.432870 -119.836002 70 13ft 0kts

Navigation Log

Ident Type
1. KVNY Airport
2. FIM Navaid
3. HENER Fix
4. DEANO Fix
5. KWANG Fix
6. KSBA Airport